createdAt,value
2019-02-21T00:02:29.801Z,30.62
2019-02-21T00:05:00.351Z,25.27
2019-02-21T00:07:30.348Z,29.90
2019-02-21T00:10:00.844Z,25.48
2019-02-21T00:12:31.296Z,29.00
2019-02-21T00:15:01.426Z,31.05
2019-02-21T00:17:31.739Z,32.10
2019-02-21T00:20:01.612Z,53.13
2019-02-21T00:22:31.987Z,34.63
2019-02-21T00:25:01.907Z,22.45
2019-02-21T00:27:32.013Z,26.05
2019-02-21T00:30:02.336Z,29.90
2019-02-21T00:32:32.822Z,29.07
2019-02-21T00:35:02.915Z,25.90
2019-02-21T00:37:33.053Z,30.97
2019-02-21T00:40:03.070Z,36.08
2019-02-21T00:42:33.188Z,27.15
2019-02-21T00:45:03.351Z,23.52
2019-02-21T00:47:33.776Z,23.10
2019-02-21T00:50:06.535Z,23.60
2019-02-21T00:52:36.460Z,25.62
2019-02-21T00:55:06.839Z,26.62
2019-02-21T00:57:37.679Z,27.95
2019-02-21T01:00:09.771Z,28.00
2019-02-21T01:02:55.888Z,33.02
2019-02-21T01:05:29.459Z,31.00
2019-02-21T01:07:59.319Z,29.48
2019-02-21T01:10:29.413Z,44.93
2019-02-21T01:13:00.209Z,39.35
2019-02-21T01:15:33.771Z,30.68
2019-02-21T01:18:04.267Z,34.98
2019-02-21T01:20:34.374Z,30.75
2019-02-21T01:23:07.274Z,29.82
2019-02-21T01:25:40.736Z,37.95
2019-02-21T01:28:10.812Z,33.95
2019-02-21T01:30:40.734Z,36.13
2019-02-21T01:33:11.526Z,36.50
2019-02-21T01:35:42.326Z,30.72
2019-02-21T01:38:15.528Z,30.97
2019-02-21T01:40:45.562Z,30.12
2019-02-21T01:43:15.530Z,30.10
2019-02-21T01:45:48.306Z,29.20
2019-02-21T01:48:18.528Z,37.90
2019-02-21T01:50:49.424Z,32.17
2019-02-21T01:53:23.435Z,30.30
2019-02-21T01:55:53.700Z,37.17
2019-02-21T01:58:23.995Z,29.60
2019-02-21T02:00:53.792Z,30.35
2019-02-21T02:03:23.930Z,29.42
2019-02-21T02:05:54.755Z,30.45
2019-02-21T02:08:27.822Z,26.68
2019-02-21T02:10:58.259Z,30.68
2019-02-21T02:13:28.370Z,28.73
2019-02-21T02:16:00.854Z,32.05
2019-02-21T02:18:30.972Z,35.28
2019-02-21T02:21:01.826Z,32.65
2019-02-21T02:23:31.868Z,30.70
2019-02-21T02:26:02.208Z,32.55
2019-02-21T02:28:32.217Z,34.53
2019-02-21T02:31:02.998Z,39.42
2019-02-21T02:33:33.208Z,35.10
2019-02-21T02:36:03.413Z,30.55
2019-02-21T02:38:33.888Z,30.00
2019-02-21T02:41:04.175Z,34.85
2019-02-21T02:43:34.188Z,29.20
2019-02-21T02:46:04.518Z,33.18
2019-02-21T02:48:34.498Z,34.67
2019-02-21T02:51:04.908Z,37.53
2019-02-21T02:53:34.789Z,29.72
2019-02-21T02:56:05.245Z,34.67
2019-02-21T02:58:35.580Z,38.42
2019-02-21T03:01:05.779Z,36.03
2019-02-21T03:03:36.680Z,39.05
2019-02-21T03:06:06.886Z,49.80
2019-02-21T03:08:37.521Z,35.15
2019-02-21T03:11:07.737Z,34.35
2019-02-21T03:13:37.856Z,33.95
2019-02-21T03:16:22.806Z,33.08
2019-02-21T03:18:40.874Z,30.32
2019-02-21T03:21:10.979Z,39.18
2019-02-21T03:23:40.772Z,28.47
2019-02-21T03:26:14.989Z,34.60
2019-02-21T03:28:45.834Z,32.88
2019-02-21T03:31:18.822Z,32.50
2019-02-21T03:33:49.245Z,32.08
2019-02-21T03:36:19.690Z,35.43
2019-02-21T03:38:50.427Z,30.85
2019-02-21T03:41:20.620Z,30.43
2019-02-21T03:43:51.456Z,30.02
2019-02-21T03:46:22.258Z,35.75
2019-02-21T03:48:52.612Z,31.48
2019-02-21T03:51:26.600Z,27.07
2019-02-21T03:53:57.172Z,36.08
2019-02-21T03:56:28.973Z,28.35
2019-02-21T03:59:09.470Z,30.65
2019-02-21T04:01:42.791Z,33.90
2019-02-21T04:04:13.185Z,32.95
2019-02-21T04:06:43.080Z,28.45
2019-02-21T04:09:13.666Z,37.40
2019-02-21T04:11:44.361Z,26.87
2019-02-21T04:14:14.418Z,40.15
2019-02-21T04:16:44.324Z,26.07
2019-02-21T04:19:16.096Z,30.48
2019-02-21T04:21:46.524Z,43.55
2019-02-21T04:24:17.213Z,26.35
2019-02-21T04:26:47.374Z,39.40
2019-02-21T04:29:17.850Z,29.95
2019-02-21T04:31:48.538Z,31.25
2019-02-21T04:34:18.696Z,30.70
2019-02-21T04:36:49.398Z,33.42
2019-02-21T04:39:19.819Z,32.48
2019-02-21T04:41:50.049Z,41.80
2019-02-21T04:44:23.088Z,35.52
2019-02-21T04:46:53.105Z,29.63
2019-02-21T04:49:23.204Z,32.83
2019-02-21T04:51:53.139Z,34.90
2019-02-21T04:54:23.456Z,28.65
2019-02-21T04:56:53.931Z,27.73
2019-02-21T04:59:24.040Z,29.60
2019-02-21T05:01:53.945Z,35.40
2019-02-21T05:04:24.812Z,25.77
2019-02-21T05:06:55.552Z,31.70
2019-02-21T05:09:27.274Z,31.60
2019-02-21T05:11:58.253Z,36.35
2019-02-21T05:14:28.511Z,33.65
2019-02-21T05:17:00.697Z,31.50
2019-02-21T05:19:31.235Z,36.55
2019-02-21T05:22:09.163Z,28.90
2019-02-21T05:24:38.957Z,28.47
2019-02-21T05:27:13.681Z,26.75
2019-02-21T05:29:43.964Z,34.75
2019-02-21T05:32:40.462Z,35.55
2019-02-21T05:35:35.129Z,28.27
2019-02-21T05:38:32.571Z,32.65
2019-02-21T05:41:13.415Z,35.15
2019-02-21T05:44:01.323Z,33.50
2019-02-21T05:46:48.770Z,36.50
2019-02-21T05:49:43.831Z,34.73
2019-02-21T05:52:27.523Z,31.02
2019-02-21T05:55:11.193Z,29.55
2019-02-21T05:57:59.195Z,31.52
2019-02-21T06:00:44.162Z,31.23
2019-02-21T06:03:30.774Z,40.00
2019-02-21T06:06:47.368Z,35.68
2019-02-21T06:09:32.451Z,33.18
2019-02-21T06:12:33.240Z,32.23
2019-02-21T06:15:26.920Z,39.50
2019-02-21T06:18:11.320Z,32.00
2019-02-21T06:21:09.243Z,40.23
2019-02-21T06:23:49.234Z,34.15
2019-02-21T06:26:26.837Z,46.10
2019-02-21T06:29:04.108Z,37.42
2019-02-21T06:31:33.883Z,34.75
2019-02-21T06:34:03.580Z,38.13
2019-02-21T06:36:33.483Z,37.13
2019-02-21T06:39:04.115Z,33.88
2019-02-21T06:41:34.126Z,41.33
2019-02-21T06:44:04.110Z,35.70
2019-02-21T06:46:33.752Z,41.25
2019-02-21T06:49:04.112Z,44.10
2019-02-21T06:51:33.987Z,43.13
2019-02-21T06:54:03.991Z,37.80
2019-02-21T06:56:33.627Z,45.78
2019-02-21T06:59:03.933Z,33.15
2019-02-21T07:01:33.754Z,49.08
2019-02-21T07:04:03.391Z,37.28
2019-02-21T07:06:33.174Z,37.83
2019-02-21T07:09:02.776Z,50.10
2019-02-21T07:11:32.667Z,44.95
2019-02-21T07:14:02.426Z,45.55
2019-02-21T07:16:32.344Z,46.13
2019-02-21T07:19:02.581Z,48.40
2019-02-21T07:21:32.535Z,53.83
2019-02-21T07:24:02.377Z,52.33
2019-02-21T07:26:31.852Z,46.48
2019-02-21T07:29:01.763Z,44.20
2019-02-21T07:31:32.633Z,47.73
2019-02-21T07:34:02.904Z,44.70
2019-02-21T07:36:32.914Z,52.50
2019-02-21T07:39:16.494Z,58.73
2019-02-21T07:41:35.788Z,53.55
2019-02-21T07:44:12.123Z,57.27
2019-02-21T07:46:36.994Z,44.48
2019-02-21T07:49:06.747Z,62.25
2019-02-21T07:51:36.504Z,47.48
2019-02-21T07:54:06.507Z,52.50
2019-02-21T07:56:41.873Z,46.77
2019-02-21T07:59:07.702Z,60.25
2019-02-21T08:01:37.725Z,49.10
2019-02-21T08:04:07.408Z,52.78
2019-02-21T08:06:37.256Z,52.83
2019-02-21T08:09:08.666Z,48.38
2019-02-21T08:11:38.909Z,63.02
2019-02-21T08:14:08.455Z,53.15
2019-02-21T08:16:38.306Z,50.50
2019-02-21T08:19:07.970Z,47.53
2019-02-21T08:21:37.778Z,52.80
2019-02-21T08:24:07.706Z,58.58
2019-02-21T08:26:37.499Z,52.75
2019-02-21T08:29:07.456Z,55.98
2019-02-21T08:31:37.353Z,62.83
2019-02-21T08:34:11.063Z,58.20
2019-02-21T08:36:40.686Z,61.33
2019-02-21T08:39:11.185Z,55.40
2019-02-21T08:41:40.820Z,64.87
2019-02-21T08:44:10.346Z,51.92
2019-02-21T08:46:40.136Z,58.23
2019-02-21T08:49:09.833Z,65.35
2019-02-21T08:51:39.620Z,58.85
2019-02-21T08:54:11.408Z,59.63
2019-02-21T08:56:40.702Z,67.12
2019-02-21T08:59:10.463Z,57.58
2019-02-21T09:01:40.102Z,56.68
2019-02-21T09:04:14.848Z,56.70
2019-02-21T09:06:41.273Z,62.10
2019-02-21T09:09:11.185Z,65.15
2019-02-21T09:11:41.425Z,72.12
2019-02-21T09:14:10.876Z,62.53
2019-02-21T09:16:40.282Z,67.55
2019-02-21T09:19:10.100Z,70.87
2019-02-21T09:21:39.627Z,70.35
2019-02-21T09:24:09.128Z,62.85
2019-02-21T09:26:38.778Z,69.77
2019-02-21T09:29:14.627Z,68.50
2019-02-21T09:31:44.118Z,57.58
2019-02-21T09:34:20.895Z,75.97
2019-02-21T09:36:45.387Z,60.33
2019-02-21T09:39:16.835Z,65.65
2019-02-21T09:41:48.987Z,70.67
2019-02-21T09:44:18.364Z,64.30
2019-02-21T09:46:47.866Z,66.67
2019-02-21T09:49:17.793Z,56.68
2019-02-21T09:51:47.542Z,54.18
2019-02-21T09:54:19.025Z,51.33
2019-02-21T09:56:52.738Z,61.88
2019-02-21T09:59:19.950Z,58.35
2019-02-21T10:01:49.940Z,60.75
2019-02-21T10:04:19.818Z,55.08
2019-02-21T10:06:49.341Z,64.62
2019-02-21T10:09:19.035Z,64.37
2019-02-21T10:11:48.616Z,65.35
2019-02-21T10:14:18.039Z,59.30
2019-02-21T10:16:49.588Z,62.43
2019-02-21T10:19:19.098Z,59.93
2019-02-21T10:21:48.915Z,60.05
2019-02-21T10:24:18.817Z,54.55
2019-02-21T10:26:48.749Z,54.80
2019-02-21T10:29:18.500Z,54.93
2019-02-21T10:31:47.951Z,65.75
2019-02-21T10:34:17.906Z,51.30
2019-02-21T10:36:47.728Z,59.35
2019-02-21T10:39:17.787Z,49.90
2019-02-21T10:41:47.663Z,64.82
2019-02-21T10:44:17.204Z,62.20
2019-02-21T10:46:47.056Z,45.87
2019-02-21T10:49:16.722Z,59.97
2019-02-21T10:51:46.453Z,56.90
2019-02-21T10:54:16.249Z,51.10
2019-02-21T10:56:45.954Z,51.27
2019-02-21T10:59:15.656Z,49.23
2019-02-21T11:01:45.364Z,52.27
2019-02-21T11:04:14.970Z,49.70
2019-02-21T11:06:45.136Z,46.27
2019-02-21T11:09:24.115Z,45.03
2019-02-21T11:11:53.902Z,48.20
2019-02-21T11:14:23.773Z,39.70
2019-02-21T11:16:53.463Z,53.80
2019-02-21T11:19:23.173Z,41.37
2019-02-21T11:21:53.169Z,50.03
2019-02-21T11:24:22.931Z,44.87
2019-02-21T11:26:52.703Z,50.17
2019-02-21T11:29:22.396Z,46.73
2019-02-21T11:31:52.207Z,45.13
2019-02-21T11:34:21.738Z,44.23
2019-02-21T11:36:51.418Z,47.63
2019-02-21T11:39:21.136Z,33.67
2019-02-21T11:41:50.840Z,31.97
2019-02-21T11:44:20.703Z,40.00
2019-02-21T11:46:50.534Z,39.57
2019-02-21T11:49:20.192Z,31.10
2019-02-21T11:51:50.176Z,33.17
2019-02-21T11:54:26.931Z,32.00
2019-02-21T11:56:51.372Z,39.90
2019-02-21T11:59:21.254Z,35.37
2019-02-21T12:01:50.891Z,29.53
2019-02-21T12:04:20.774Z,37.37
2019-02-21T12:06:50.483Z,31.07
2019-02-21T12:09:20.061Z,31.80
2019-02-21T12:11:49.969Z,35.87
2019-02-21T12:14:19.523Z,40.30
2019-02-21T12:16:49.455Z,33.67
2019-02-21T12:19:18.869Z,36.60
2019-02-21T12:21:58.330Z,28.07
2019-02-21T12:24:19.564Z,31.50
2019-02-21T12:26:49.171Z,32.13
2019-02-21T12:29:19.083Z,28.27
2019-02-21T12:31:48.793Z,39.87
2019-02-21T12:34:18.607Z,34.27
2019-02-21T12:36:48.314Z,41.70
2019-02-21T12:39:18.248Z,29.57
2019-02-21T12:41:48.348Z,32.87
2019-02-21T12:44:18.014Z,28.13
2019-02-21T12:46:47.456Z,27.70
2019-02-21T12:49:17.298Z,35.17
2019-02-21T12:51:47.195Z,35.23
2019-02-21T12:54:16.781Z,30.17
2019-02-21T12:56:46.448Z,28.23
2019-02-21T12:59:16.405Z,30.07
2019-02-21T13:01:46.209Z,31.23
2019-02-21T13:04:15.728Z,32.53
2019-02-21T13:06:45.364Z,31.60
2019-02-21T13:09:15.012Z,27.97
2019-02-21T13:11:44.747Z,25.93
2019-02-21T13:14:14.246Z,28.30
2019-02-21T13:16:43.851Z,33.13
2019-02-21T13:19:13.391Z,31.30
2019-02-21T13:21:43.061Z,25.13
2019-02-21T13:24:12.876Z,27.47
2019-02-21T13:26:42.247Z,24.27
2019-02-21T13:29:12.007Z,30.27
2019-02-21T13:31:41.801Z,25.37
2019-02-21T13:34:11.196Z,20.30
2019-02-21T13:36:40.682Z,23.13
2019-02-21T13:39:10.304Z,18.50
2019-02-21T13:41:40.089Z,17.37
2019-02-21T13:44:09.541Z,20.93
2019-02-21T13:46:41.345Z,26.93
2019-02-21T13:49:10.203Z,20.67
2019-02-21T13:51:40.077Z,24.97
2019-02-21T13:54:09.844Z,17.40
2019-02-21T13:56:39.288Z,27.53
2019-02-21T13:59:08.897Z,18.47
2019-02-21T14:01:38.648Z,21.63
2019-02-21T14:04:09.028Z,28.37
2019-02-21T14:06:38.463Z,24.40
2019-02-21T14:09:08.407Z,23.27
2019-02-21T14:11:38.043Z,29.83
2019-02-21T14:14:07.973Z,27.70
2019-02-21T14:16:46.127Z,22.67
2019-02-21T14:19:09.370Z,18.93
2019-02-21T14:21:38.934Z,22.80
2019-02-21T14:24:09.360Z,22.13
2019-02-21T14:26:39.170Z,18.30
2019-02-21T14:29:09.244Z,15.00
2019-02-21T14:31:38.584Z,15.50
2019-02-21T14:34:08.399Z,18.67
2019-02-21T14:36:38.041Z,20.30
2019-02-21T14:39:10.540Z,19.20
2019-02-21T14:41:40.202Z,19.13
2019-02-21T14:44:09.791Z,29.97
2019-02-21T14:46:39.240Z,21.30
2019-02-21T14:49:09.001Z,21.87
2019-02-21T14:51:38.520Z,18.77
2019-02-21T14:54:08.520Z,24.40
2019-02-21T14:56:38.404Z,28.57
2019-02-21T14:59:08.402Z,22.40
2019-02-21T15:01:38.401Z,23.50
2019-02-21T15:04:08.162Z,27.33
2019-02-21T15:06:37.859Z,23.87
2019-02-21T15:09:07.687Z,32.83
2019-02-21T15:11:37.561Z,37.27
2019-02-21T15:14:07.114Z,31.33
2019-02-21T15:16:37.198Z,26.20
2019-02-21T15:19:06.720Z,25.90
2019-02-21T15:21:36.243Z,30.40
2019-02-21T15:24:05.880Z,28.57
2019-02-21T15:26:35.764Z,29.03
2019-02-21T15:29:06.000Z,29.40
2019-02-21T15:31:35.794Z,27.27
2019-02-21T15:34:05.796Z,31.73
2019-02-21T15:36:38.486Z,33.10
2019-02-21T15:39:08.771Z,34.30
2019-02-21T15:41:38.517Z,31.83
2019-02-21T15:44:08.224Z,30.33
2019-02-21T15:46:38.047Z,41.90
2019-02-21T15:49:07.876Z,38.43
2019-02-21T15:51:37.761Z,28.33
2019-02-21T15:54:07.771Z,37.87
2019-02-21T15:56:37.379Z,34.53
2019-02-21T15:59:07.599Z,29.20
2019-02-21T16:01:47.004Z,32.63
2019-02-21T16:04:08.636Z,33.83
2019-02-21T16:06:50.812Z,32.30
2019-02-21T16:09:16.344Z,28.50
2019-02-21T16:11:42.079Z,30.50
2019-02-21T16:14:11.758Z,30.53
2019-02-21T16:16:41.636Z,31.80
2019-02-21T16:19:11.104Z,34.27
2019-02-21T16:21:40.632Z,37.80
2019-02-21T16:24:10.558Z,36.07
2019-02-21T16:26:40.560Z,33.70
2019-02-21T16:29:10.321Z,32.13
2019-02-21T16:31:40.082Z,35.90
2019-02-21T16:34:09.967Z,34.67
2019-02-21T16:36:39.600Z,46.30
2019-02-21T16:39:09.237Z,41.93
2019-02-21T16:41:38.876Z,30.30
2019-02-21T16:44:08.602Z,37.10
2019-02-21T16:46:38.511Z,34.03
2019-02-21T16:49:08.011Z,41.63
2019-02-21T16:51:37.821Z,32.87
2019-02-21T16:54:07.533Z,43.43
2019-02-21T16:56:37.038Z,35.53
2019-02-21T16:59:07.076Z,44.77
2019-02-21T17:01:36.720Z,38.40
2019-02-21T17:04:06.260Z,31.83
2019-02-21T17:06:36.759Z,38.87
2019-02-21T17:09:07.801Z,39.47
2019-02-21T17:11:37.807Z,39.13
2019-02-21T17:14:07.874Z,40.43
2019-02-21T17:16:38.198Z,31.67
2019-02-21T17:19:08.112Z,30.87
2019-02-21T17:21:38.180Z,35.43
2019-02-21T17:24:08.241Z,33.03
2019-02-21T17:26:38.258Z,32.87
2019-02-21T17:29:08.396Z,46.13
2019-02-21T17:31:38.306Z,34.57
2019-02-21T17:34:08.703Z,38.10
2019-02-21T17:36:38.161Z,34.87
2019-02-21T17:39:09.125Z,30.87
2019-02-21T17:41:39.354Z,37.33
2019-02-21T17:44:09.232Z,32.60
2019-02-21T17:46:39.010Z,38.70
2019-02-21T17:49:08.787Z,49.97
2019-02-21T17:51:38.725Z,33.70
2019-02-21T17:54:08.524Z,41.00
2019-02-21T17:56:38.760Z,42.10
2019-02-21T17:59:08.397Z,41.67
2019-02-21T18:01:38.154Z,46.63
2019-02-21T18:04:07.805Z,34.83
2019-02-21T18:06:37.469Z,37.10
2019-02-21T18:09:07.923Z,46.13
2019-02-21T18:11:37.677Z,45.57
2019-02-21T18:14:07.802Z,37.63
2019-02-21T18:16:37.685Z,39.50
2019-02-21T18:19:07.556Z,51.27
2019-02-21T18:21:37.441Z,44.60
2019-02-21T18:24:07.405Z,41.57
2019-02-21T18:26:37.919Z,42.03
2019-02-21T18:29:07.918Z,38.80
2019-02-21T18:31:37.865Z,35.17
2019-02-21T18:34:07.804Z,39.08
2019-02-21T18:36:37.459Z,50.43
2019-02-21T18:39:08.396Z,40.20
2019-02-21T18:41:38.404Z,41.25
2019-02-21T18:44:08.152Z,42.93
2019-02-21T18:46:38.293Z,49.20
2019-02-21T18:49:08.045Z,47.73
2019-02-21T18:51:38.173Z,38.08
2019-02-21T18:54:08.285Z,40.28
2019-02-21T18:56:38.197Z,41.37
2019-02-21T18:59:08.328Z,45.40
2019-02-21T19:01:38.391Z,46.68
2019-02-21T19:04:08.773Z,44.83
2019-02-21T19:06:38.520Z,44.42
2019-02-21T19:09:09.598Z,47.50
2019-02-21T19:11:39.440Z,42.62
2019-02-21T19:14:08.877Z,45.95
2019-02-21T19:16:38.834Z,49.35
2019-02-21T19:19:08.552Z,55.15
2019-02-21T19:21:38.510Z,54.03
2019-02-21T19:24:08.638Z,53.23
2019-02-21T19:26:38.405Z,56.95
2019-02-21T19:29:08.393Z,52.20
2019-02-21T19:31:38.293Z,56.53
2019-02-21T19:34:07.969Z,52.23
2019-02-21T19:36:37.853Z,51.35
2019-02-21T19:39:08.031Z,50.63
2019-02-21T19:41:38.532Z,62.17
2019-02-21T19:44:09.403Z,49.15
2019-02-21T19:46:39.481Z,54.20
2019-02-21T19:49:09.362Z,50.58
2019-02-21T19:51:39.478Z,46.10
2019-02-21T19:54:09.354Z,46.68
2019-02-21T19:56:39.088Z,49.70
2019-02-21T19:59:09.308Z,43.35
2019-02-21T20:01:39.497Z,50.23
2019-02-21T20:04:09.358Z,54.40
2019-02-21T20:06:39.364Z,49.00
2019-02-21T20:09:10.671Z,48.73
2019-02-21T20:11:41.027Z,56.18
2019-02-21T20:14:10.908Z,54.98
2019-02-21T20:16:40.650Z,49.10
2019-02-21T20:19:17.157Z,53.52
2019-02-21T20:21:46.852Z,51.20
2019-02-21T20:24:16.918Z,48.30
2019-02-21T20:26:47.036Z,40.00
2019-02-21T20:29:17.291Z,43.02
2019-02-21T20:31:48.828Z,50.05
2019-02-21T20:34:19.051Z,49.10
2019-02-21T20:36:51.394Z,41.28
2019-02-21T20:39:21.119Z,50.30
2019-02-21T20:41:51.229Z,45.17
2019-02-21T20:44:21.509Z,44.33
2019-02-21T20:46:51.683Z,43.35
2019-02-21T20:49:21.491Z,50.08
2019-02-21T20:51:52.384Z,51.98
2019-02-21T20:54:22.551Z,57.43
2019-02-21T20:56:52.551Z,46.83
2019-02-21T20:59:22.803Z,54.18
2019-02-21T21:01:52.692Z,49.10
2019-02-21T21:04:22.649Z,49.23
2019-02-21T21:06:52.533Z,53.38
2019-02-21T21:09:22.641Z,55.58
2019-02-21T21:11:52.790Z,51.00
2019-02-21T21:14:22.892Z,57.23
2019-02-21T21:16:53.287Z,52.80
2019-02-21T21:19:23.578Z,52.67
2019-02-21T21:21:53.898Z,59.20
2019-02-21T21:24:31.567Z,59.48
2019-02-21T21:27:02.037Z,56.35
2019-02-21T21:29:31.908Z,55.38
2019-02-21T21:32:01.789Z,53.28
2019-02-21T21:34:31.489Z,57.17
2019-02-21T21:37:01.550Z,56.02
2019-02-21T21:39:37.570Z,67.50
2019-02-21T21:42:08.410Z,60.33
2019-02-21T21:44:38.513Z,64.87
2019-02-21T21:47:08.556Z,56.95
2019-02-21T21:49:38.866Z,67.75
2019-02-21T21:52:09.029Z,61.55
2019-02-21T21:54:39.470Z,68.22
2019-02-21T21:57:09.638Z,70.10
2019-02-21T21:59:39.593Z,68.60
2019-02-21T22:02:09.559Z,69.92
2019-02-21T22:04:39.471Z,73.02
2019-02-21T22:07:09.230Z,69.10
2019-02-21T22:09:39.226Z,62.40
2019-02-21T22:12:09.117Z,71.62
2019-02-21T22:14:39.105Z,67.08
2019-02-21T22:17:15.113Z,75.20
2019-02-21T22:19:44.866Z,69.37
2019-02-21T22:22:15.054Z,66.40
2019-02-21T22:24:44.770Z,62.50
2019-02-21T22:27:14.993Z,71.95
2019-02-21T22:29:45.224Z,66.75
2019-02-21T22:32:15.710Z,75.57
2019-02-21T22:34:47.187Z,73.37
2019-02-21T22:37:17.257Z,72.00
2019-02-21T22:39:47.152Z,67.67
2019-02-21T22:42:18.094Z,69.10
2019-02-21T22:44:48.444Z,73.02
2019-02-21T22:47:18.585Z,81.63
2019-02-21T22:49:48.830Z,80.30
2019-02-21T22:52:18.688Z,70.17
2019-02-21T22:54:48.435Z,73.57
2019-02-21T22:57:18.674Z,73.70
2019-02-21T22:59:52.794Z,69.67
2019-02-21T23:02:26.399Z,75.28
2019-02-21T23:05:37.911Z,83.33
2019-02-21T23:08:37.906Z,78.25
2019-02-21T23:11:08.280Z,82.20
2019-02-21T23:13:38.633Z,75.97
2019-02-21T23:16:09.493Z,79.00
2019-02-21T23:18:40.004Z,82.80
2019-02-21T23:21:10.188Z,81.97
2019-02-21T23:23:40.190Z,77.37
2019-02-21T23:26:11.503Z,80.45
2019-02-21T23:28:42.104Z,85.22
2019-02-21T23:31:14.162Z,84.52
2019-02-21T23:33:51.073Z,81.78
2019-02-21T23:36:21.713Z,82.30
2019-02-21T23:38:51.971Z,83.58
2019-02-21T23:41:22.189Z,80.32
2019-02-21T23:43:52.543Z,79.10
2019-02-21T23:46:22.542Z,82.65
2019-02-21T23:48:52.434Z,76.92
2019-02-21T23:51:22.425Z,80.97
2019-02-21T23:54:02.477Z,80.83
2019-02-21T23:56:23.991Z,72.15
2019-02-21T23:58:54.006Z,75.62
